createdAt,value
2017-12-20T00:02:20.339Z,1.12
2017-12-20T00:04:49.395Z,1.11
2017-12-20T00:07:23.562Z,1.22
2017-12-20T00:09:52.593Z,1.01
2017-12-20T00:12:25.225Z,1.09
2017-12-20T00:14:54.290Z,1.05
2017-12-20T00:17:23.336Z,0.99
2017-12-20T00:19:52.436Z,1.06
2017-12-20T00:22:36.426Z,1.12
2017-12-20T00:25:05.467Z,1.00
2017-12-20T00:27:40.309Z,0.93
2017-12-20T00:30:10.242Z,0.98
2017-12-20T00:35:17.714Z,1.10
2017-12-20T00:37:46.770Z,1.00
2017-12-20T00:40:37.909Z,0.94
2017-12-20T00:43:14.999Z,0.98
2017-12-20T00:45:45.052Z,0.99
2017-12-20T00:48:21.586Z,0.96
2017-12-20T00:50:50.737Z,0.93
2017-12-20T00:53:23.163Z,1.00
2017-12-20T00:55:52.227Z,1.02
2017-12-20T00:58:22.292Z,1.01
2017-12-20T01:00:51.331Z,1.03
2017-12-20T01:03:27.743Z,1.07
2017-12-20T01:05:56.786Z,1.10
2017-12-20T01:08:27.790Z,1.13
2017-12-20T01:10:56.860Z,1.13
2017-12-20T01:13:26.808Z,1.15
2017-12-20T01:15:56.969Z,1.20
2017-12-20T01:18:26.026Z,1.16
2017-12-20T01:20:56.944Z,1.11
2017-12-20T01:23:25.991Z,0.96
2017-12-20T01:25:58.852Z,1.01
2017-12-20T01:28:27.927Z,0.97
2017-12-20T01:33:32.230Z,0.77
2017-12-20T01:36:02.311Z,0.72
2017-12-20T01:38:31.385Z,0.70
2017-12-20T01:43:52.550Z,0.79
2017-12-20T01:46:22.581Z,0.72
2017-12-20T01:48:51.630Z,0.87
2017-12-20T01:51:20.661Z,0.86
2017-12-20T01:53:53.350Z,0.89
2017-12-20T01:56:27.238Z,0.68
2017-12-20T01:58:56.302Z,0.76
2017-12-20T02:01:25.355Z,0.81
2017-12-20T02:03:58.358Z,0.87
2017-12-20T02:06:27.423Z,0.91
2017-12-20T02:08:56.459Z,0.99
2017-12-20T02:11:26.453Z,0.99
2017-12-20T02:13:57.497Z,0.98
2017-12-20T02:16:28.575Z,1.09
2017-12-20T02:18:59.586Z,1.18
2017-12-20T02:21:28.648Z,1.15
2017-12-20T02:23:59.626Z,1.09
2017-12-20T02:26:30.987Z,1.11
2017-12-20T02:29:00.032Z,1.18
2017-12-20T02:31:34.913Z,1.11
2017-12-20T02:34:04.040Z,1.03
2017-12-20T02:36:34.129Z,1.03
2017-12-20T02:39:06.968Z,0.96
2017-12-20T02:44:12.031Z,1.01
2017-12-20T02:46:41.098Z,0.99
2017-12-20T02:49:11.081Z,0.93
2017-12-20T02:51:40.129Z,0.90
2017-12-20T02:54:09.173Z,0.95
2017-12-20T02:56:38.245Z,1.04
2017-12-20T02:59:08.256Z,0.98
2017-12-20T03:01:37.297Z,0.99
2017-12-20T03:04:06.358Z,0.93
2017-12-20T03:06:35.403Z,1.05
2017-12-20T03:09:06.418Z,0.98
2017-12-20T03:11:35.467Z,0.78
2017-12-20T03:14:05.478Z,0.95
2017-12-20T03:16:34.604Z,0.84
2017-12-20T03:21:39.368Z,0.89
2017-12-20T03:24:08.418Z,0.84
2017-12-20T03:26:37.458Z,0.82
2017-12-20T03:29:07.434Z,0.85
2017-12-20T03:31:36.487Z,0.92
2017-12-20T03:34:06.418Z,0.85
2017-12-20T03:36:35.462Z,0.83
2017-12-20T03:39:04.505Z,0.81
2017-12-20T03:41:33.555Z,0.81
2017-12-20T03:46:43.762Z,0.75
2017-12-20T03:49:12.823Z,0.82
2017-12-20T03:51:41.887Z,0.83
2017-12-20T03:54:12.862Z,0.87
2017-12-20T03:56:41.904Z,0.91
2017-12-20T03:59:11.862Z,0.94
2017-12-20T04:01:40.893Z,0.87
2017-12-20T04:04:09.934Z,0.89
2017-12-20T04:06:38.982Z,0.87
2017-12-20T04:09:08.029Z,0.98
2017-12-20T04:14:12.356Z,1.04
2017-12-20T04:16:42.354Z,0.98
2017-12-20T04:19:13.384Z,0.91
2017-12-20T04:21:43.399Z,1.03
2017-12-20T04:24:13.426Z,1.04
2017-12-20T04:26:42.568Z,1.12
2017-12-20T04:29:11.626Z,1.08
2017-12-20T04:31:44.922Z,0.99
2017-12-20T04:34:13.946Z,1.07
2017-12-20T04:36:43.972Z,1.20
2017-12-20T04:39:13.026Z,1.08
2017-12-20T04:41:42.079Z,1.10
2017-12-20T04:46:46.473Z,1.19
2017-12-20T04:49:15.502Z,1.21
2017-12-20T04:51:44.545Z,1.19
2017-12-20T04:54:13.767Z,1.28
2017-12-20T04:56:50.867Z,1.36
2017-12-20T05:01:57.099Z,1.30
2017-12-20T05:04:27.063Z,1.28
2017-12-20T05:06:56.095Z,1.38
2017-12-20T05:09:26.039Z,1.28
2017-12-20T05:11:55.082Z,1.37
2017-12-20T05:14:25.094Z,1.44
2017-12-20T05:16:54.190Z,1.41
2017-12-20T05:19:23.230Z,1.44
2017-12-20T05:21:52.287Z,1.42
2017-12-20T05:24:21.357Z,1.37
2017-12-20T05:26:50.406Z,1.34
2017-12-20T05:29:19.452Z,1.40
2017-12-20T05:31:51.997Z,1.40
2017-12-20T05:36:56.507Z,1.47
2017-12-20T05:39:25.539Z,1.34
2017-12-20T05:41:54.589Z,1.32
2017-12-20T05:47:00.779Z,1.44
2017-12-20T05:49:29.810Z,1.44
2017-12-20T05:51:58.866Z,1.43
2017-12-20T05:54:29.828Z,1.34
2017-12-20T05:56:58.853Z,1.32
2017-12-20T05:59:29.867Z,1.43
2017-12-20T06:01:58.930Z,1.46
2017-12-20T06:04:28.877Z,1.41
2017-12-20T06:06:57.966Z,1.41
2017-12-20T06:09:26.966Z,1.46
2017-12-20T06:11:56.011Z,1.31
2017-12-20T06:14:25.090Z,1.29
2017-12-20T06:16:54.176Z,1.35
2017-12-20T06:19:23.223Z,1.38
2017-12-20T06:21:53.202Z,1.39
2017-12-20T06:24:22.256Z,1.27
2017-12-20T06:26:52.234Z,1.36
2017-12-20T06:29:21.285Z,1.44
2017-12-20T06:31:50.319Z,1.54
2017-12-20T06:34:19.367Z,1.62
2017-12-20T06:36:51.472Z,1.53
2017-12-20T06:39:21.417Z,1.54
2017-12-20T06:41:56.442Z,1.57
2017-12-20T06:44:25.479Z,1.45
2017-12-20T06:46:58.253Z,1.55
2017-12-20T06:49:27.306Z,1.41
2017-12-20T06:52:09.914Z,1.28
2017-12-20T06:57:15.106Z,1.52
2017-12-20T06:59:46.122Z,1.52
2017-12-20T07:04:57.562Z,1.48
2017-12-20T07:07:30.229Z,1.50
2017-12-20T07:10:16.967Z,1.60
2017-12-20T07:12:45.986Z,1.66
2017-12-20T07:15:33.890Z,1.67
2017-12-20T07:20:39.149Z,1.72
2017-12-20T07:23:09.115Z,1.78
2017-12-20T07:28:16.098Z,1.81
2017-12-20T07:30:45.135Z,1.77
2017-12-20T07:33:14.173Z,1.81
2017-12-20T07:38:35.474Z,1.90
2017-12-20T07:41:05.408Z,1.91
2017-12-20T07:46:09.639Z,2.03
2017-12-20T07:48:48.416Z,1.91
2017-12-20T07:51:17.501Z,1.94
2017-12-20T07:53:46.509Z,1.98
2017-12-20T07:56:15.546Z,2.08
2017-12-20T07:59:01.871Z,2.08
2017-12-20T08:01:32.844Z,2.02
2017-12-20T08:04:01.902Z,2.14
2017-12-20T08:09:10.094Z,2.38
2017-12-20T08:11:58.677Z,2.55
2017-12-20T08:17:06.946Z,2.64
2017-12-20T08:19:44.715Z,2.63
2017-12-20T08:22:16.674Z,2.91
2017-12-20T08:24:49.462Z,2.96
2017-12-20T08:27:19.614Z,3.00
2017-12-20T08:30:01.031Z,2.87
2017-12-20T08:35:11.283Z,2.77
2017-12-20T08:40:18.666Z,2.77
2017-12-20T08:42:57.855Z,2.84
2017-12-20T08:45:44.891Z,2.98
2017-12-20T08:48:13.951Z,3.07
2017-12-20T08:50:48.046Z,3.22
2017-12-20T08:53:17.112Z,3.23
2017-12-20T08:55:47.156Z,3.28
2017-12-20T08:58:16.203Z,3.35
2017-12-20T09:00:53.625Z,3.52
2017-12-20T09:03:22.659Z,3.60
2017-12-20T09:05:51.696Z,3.53
2017-12-20T09:08:24.326Z,3.24
2017-12-20T09:10:55.357Z,3.09
2017-12-20T09:13:24.406Z,2.97
2017-12-20T09:16:00.831Z,3.25
2017-12-20T09:18:41.818Z,3.35
2017-12-20T09:21:10.850Z,3.41
2017-12-20T09:26:19.113Z,3.32
2017-12-20T09:28:49.147Z,3.37
2017-12-20T09:31:18.190Z,3.31
2017-12-20T09:34:01.656Z,3.39
2017-12-20T09:36:30.696Z,3.40
2017-12-20T09:39:00.642Z,3.52
2017-12-20T09:41:31.635Z,3.28
2017-12-20T09:44:00.729Z,3.30
2017-12-20T09:46:37.466Z,3.28
2017-12-20T09:49:07.430Z,3.26
2017-12-20T09:54:11.723Z,3.72
2017-12-20T09:56:52.960Z,4.03
2017-12-20T09:59:23.983Z,4.29
2017-12-20T10:01:53.024Z,4.81
2017-12-20T10:04:25.794Z,4.83
2017-12-20T10:07:00.557Z,5.14
2017-12-20T10:09:29.592Z,5.11
2017-12-20T10:11:58.639Z,4.94
2017-12-20T10:19:51.650Z,5.39
2017-12-20T10:22:22.591Z,5.40
2017-12-20T10:24:55.553Z,5.07
2017-12-20T10:27:56.224Z,5.10
2017-12-20T10:31:00.401Z,5.15
2017-12-20T10:36:04.831Z,5.81
2017-12-20T10:38:38.550Z,5.51
2017-12-20T10:41:07.606Z,5.07
2017-12-20T10:43:50.846Z,4.40
2017-12-20T10:46:19.947Z,4.37
2017-12-20T10:49:00.726Z,4.40
2017-12-20T10:51:54.154Z,4.30
2017-12-20T10:54:30.220Z,4.03
2017-12-20T10:56:59.257Z,4.23
2017-12-20T11:02:11.433Z,3.88
2017-12-20T11:04:40.445Z,3.85
2017-12-20T11:07:29.010Z,3.97
2017-12-20T11:09:58.049Z,4.07
2017-12-20T11:12:31.966Z,4.02
2017-12-20T11:15:04.784Z,3.91
2017-12-20T11:17:33.870Z,4.13
2017-12-20T11:22:43.120Z,4.53
2017-12-20T11:25:29.633Z,4.51
2017-12-20T11:27:58.689Z,4.69
2017-12-20T11:30:27.725Z,4.56
2017-12-20T11:33:00.553Z,4.37
2017-12-20T11:35:30.898Z,4.41
2017-12-20T11:37:59.980Z,4.30
2017-12-20T11:40:29.020Z,4.35
2017-12-20T11:42:58.996Z,4.49
2017-12-20T11:48:03.475Z,4.79
2017-12-20T11:50:32.497Z,4.45
2017-12-20T11:53:09.419Z,4.33
2017-12-20T11:55:39.042Z,4.09
2017-12-20T11:58:08.108Z,4.18
2017-12-20T12:00:37.979Z,4.25
2017-12-20T12:03:07.011Z,4.19
2017-12-20T12:05:37.095Z,4.13
2017-12-20T12:08:06.137Z,4.14
2017-12-20T12:10:35.716Z,4.40
2017-12-20T12:13:04.852Z,4.63
2017-12-20T12:15:33.910Z,4.75
2017-12-20T12:18:08.805Z,4.61
2017-12-20T12:20:37.967Z,4.74
2017-12-20T12:23:17.032Z,4.56
2017-12-20T12:25:46.093Z,4.59
2017-12-20T12:28:15.132Z,4.55
2017-12-20T12:30:44.162Z,4.60
2017-12-20T12:33:17.740Z,4.53
2017-12-20T12:35:46.793Z,4.39
2017-12-20T12:38:15.818Z,4.33
2017-12-20T12:40:44.977Z,4.15
2017-12-20T12:43:17.331Z,4.29
2017-12-20T12:45:47.260Z,4.47
2017-12-20T12:48:29.713Z,4.63
2017-12-20T12:53:34.090Z,4.69
2017-12-20T12:56:16.836Z,4.53
2017-12-20T12:58:45.856Z,4.40
2017-12-20T13:01:20.385Z,4.43
2017-12-20T13:03:49.417Z,4.08
2017-12-20T13:06:18.452Z,4.38
2017-12-20T13:08:47.479Z,4.46
2017-12-20T13:11:16.541Z,4.55
2017-12-20T13:13:45.566Z,4.38
2017-12-20T13:18:59.801Z,4.72
2017-12-20T13:21:32.611Z,4.65
2017-12-20T13:24:12.701Z,4.76
2017-12-20T13:26:42.712Z,4.93
2017-12-20T13:31:46.989Z,5.10
2017-12-20T13:34:31.666Z,4.95
2017-12-20T13:37:04.010Z,4.83
2017-12-20T13:39:33.045Z,4.63
2017-12-20T13:42:02.074Z,4.44
2017-12-20T13:44:31.098Z,4.47
2017-12-20T13:47:01.133Z,4.43
2017-12-20T13:49:32.153Z,4.47
2017-12-20T13:52:06.072Z,4.25
2017-12-20T13:54:35.158Z,4.04
2017-12-20T13:59:41.099Z,4.37
2017-12-20T14:02:31.562Z,4.20
2017-12-20T14:07:35.823Z,4.13
2017-12-20T14:10:10.366Z,4.08
2017-12-20T14:12:39.531Z,4.05
2017-12-20T14:15:08.590Z,3.95
2017-12-20T14:17:37.616Z,3.87
2017-12-20T14:20:28.133Z,3.79
2017-12-20T14:22:57.178Z,3.68
2017-12-20T14:25:33.945Z,3.73
2017-12-20T14:30:38.947Z,3.86
2017-12-20T14:33:07.986Z,3.70
2017-12-20T14:35:37.976Z,3.69
2017-12-20T14:40:51.208Z,3.74
2017-12-20T14:43:21.174Z,3.68
2017-12-20T14:45:54.883Z,3.62
2017-12-20T14:48:27.842Z,3.55
2017-12-20T14:50:57.028Z,3.56
2017-12-20T14:53:54.149Z,3.52
2017-12-20T14:56:26.665Z,3.51
2017-12-20T14:58:55.745Z,3.38
2017-12-20T15:01:40.209Z,3.33
2017-12-20T15:04:09.230Z,3.45
2017-12-20T15:06:40.378Z,3.39
2017-12-20T15:09:09.403Z,3.36
2017-12-20T15:11:42.048Z,3.42
2017-12-20T15:14:11.107Z,3.40
2017-12-20T15:16:43.682Z,3.40
2017-12-20T15:19:12.722Z,3.44
2017-12-20T15:21:43.768Z,3.49
2017-12-20T15:24:12.793Z,3.33
2017-12-20T15:26:47.217Z,3.23
2017-12-20T15:29:36.967Z,3.27
2017-12-20T15:32:05.986Z,3.07
2017-12-20T15:34:39.981Z,3.04
2017-12-20T15:37:09.016Z,3.03
2017-12-20T15:39:38.589Z,3.01
2017-12-20T15:42:07.631Z,3.01
2017-12-20T15:44:40.034Z,3.16
2017-12-20T15:47:09.102Z,3.03
2017-12-20T15:49:45.754Z,3.10
2017-12-20T15:54:54.916Z,2.93
2017-12-20T15:57:24.013Z,2.94
2017-12-20T15:59:55.033Z,3.00
2017-12-20T16:02:24.984Z,2.95
2017-12-20T16:04:54.920Z,2.88
2017-12-20T16:07:24.147Z,2.81
2017-12-20T16:09:53.192Z,2.67
2017-12-20T16:12:29.923Z,2.70
2017-12-20T16:14:59.633Z,2.76
2017-12-20T16:17:54.537Z,2.91
2017-12-20T16:23:05.775Z,2.83
2017-12-20T16:25:34.815Z,2.85
2017-12-20T16:28:19.608Z,2.87
2017-12-20T16:30:50.610Z,2.84
2017-12-20T16:33:21.922Z,2.90
2017-12-20T16:36:05.926Z,2.95
2017-12-20T16:38:34.954Z,2.86
2017-12-20T16:41:18.127Z,2.95
2017-12-20T16:43:52.635Z,2.85
2017-12-20T16:46:21.710Z,2.92
2017-12-20T16:49:09.960Z,2.88
2017-12-20T16:51:42.295Z,2.76
2017-12-20T16:54:19.152Z,2.86
2017-12-20T16:56:49.959Z,2.85
2017-12-20T16:59:19.897Z,2.80
2017-12-20T17:04:24.180Z,2.97
2017-12-20T17:09:39.408Z,2.86
2017-12-20T17:12:10.446Z,2.77
2017-12-20T17:14:50.838Z,2.77
2017-12-20T17:17:19.886Z,2.77
2017-12-20T17:19:50.823Z,2.72
2017-12-20T17:22:20.002Z,2.68
2017-12-20T17:24:50.965Z,2.72
2017-12-20T17:27:20.008Z,2.66
2017-12-20T17:30:00.234Z,2.71
2017-12-20T17:32:29.314Z,2.67
2017-12-20T17:35:11.057Z,2.68
2017-12-20T17:37:41.168Z,2.76
2017-12-20T17:42:46.109Z,2.73
2017-12-20T17:47:50.294Z,2.64
2017-12-20T17:52:57.533Z,2.58
2017-12-20T17:58:18.605Z,2.67
2017-12-20T18:00:47.646Z,2.44
2017-12-20T18:03:20.408Z,2.41
2017-12-20T18:05:50.112Z,2.41
2017-12-20T18:08:24.539Z,2.48
2017-12-20T18:10:53.547Z,2.52
2017-12-20T18:13:35.507Z,2.54
2017-12-20T18:18:46.934Z,2.59
2017-12-20T18:23:52.169Z,2.56
2017-12-20T18:29:01.346Z,2.51
2017-12-20T18:34:35.331Z,2.40
2017-12-20T18:39:43.456Z,2.54
2017-12-20T18:42:13.482Z,2.67
2017-12-20T18:44:42.517Z,2.60
2017-12-20T18:47:18.971Z,2.63
2017-12-20T18:49:48.019Z,2.43
2017-12-20T18:52:17.046Z,2.47
2017-12-20T18:54:46.119Z,2.38
2017-12-20T18:57:25.980Z,2.41
2017-12-20T18:59:55.022Z,2.46
2017-12-20T19:02:25.025Z,2.37
2017-12-20T19:04:54.060Z,2.44
2017-12-20T19:07:23.130Z,2.39
2017-12-20T19:09:52.171Z,2.47
2017-12-20T19:12:21.255Z,2.40
2017-12-20T19:17:27.690Z,2.40
2017-12-20T19:20:00.436Z,2.34
2017-12-20T19:22:29.612Z,2.43
2017-12-20T19:24:58.691Z,2.31
2017-12-20T19:27:27.879Z,2.38
2017-12-20T19:29:57.484Z,2.28
2017-12-20T19:32:26.597Z,2.38
2017-12-20T19:34:55.833Z,2.37
2017-12-20T19:37:25.168Z,2.51
2017-12-20T19:39:54.962Z,2.47
2017-12-20T19:44:59.322Z,2.52
2017-12-20T19:47:30.435Z,2.42
2017-12-20T19:50:00.699Z,2.35
2017-12-20T19:52:32.086Z,2.37
2017-12-20T19:55:01.289Z,2.45
2017-12-20T20:00:09.422Z,2.47
2017-12-20T20:02:41.609Z,2.41
2017-12-20T20:05:14.266Z,2.51
2017-12-20T20:07:43.447Z,2.53
2017-12-20T20:10:12.615Z,2.34
2017-12-20T20:12:41.665Z,2.34
2017-12-20T20:15:10.786Z,2.27
2017-12-20T20:20:18.766Z,2.20
2017-12-20T20:22:47.898Z,2.32
2017-12-20T20:25:16.943Z,2.41
2017-12-20T20:27:46.071Z,2.47
2017-12-20T20:30:15.206Z,2.52
2017-12-20T20:32:45.150Z,2.28
2017-12-20T20:35:14.223Z,2.33
2017-12-20T20:37:43.522Z,2.50
2017-12-20T20:40:17.158Z,2.56
2017-12-20T20:42:48.294Z,2.37
2017-12-20T20:45:20.424Z,2.20
2017-12-20T20:50:24.697Z,2.22
2017-12-20T20:52:55.722Z,2.10
2017-12-20T20:55:26.051Z,2.15
2017-12-20T20:57:57.136Z,2.17
2017-12-20T21:00:26.393Z,2.17
2017-12-20T21:02:55.585Z,2.14
2017-12-20T21:05:24.785Z,2.05
2017-12-20T21:07:54.846Z,2.04
2017-12-20T21:10:25.845Z,1.97
2017-12-20T21:13:08.656Z,1.99
2017-12-20T21:15:37.849Z,1.90
2017-12-20T21:18:14.957Z,1.83
2017-12-20T21:20:44.042Z,1.86
2017-12-20T21:25:48.477Z,1.79
2017-12-20T21:28:17.533Z,1.82
2017-12-20T21:30:46.586Z,1.94
2017-12-20T21:36:00.331Z,2.07
2017-12-20T21:38:29.391Z,2.02
2017-12-20T21:40:59.322Z,1.90
2017-12-20T21:43:28.391Z,1.78
2017-12-20T21:45:57.439Z,1.77
2017-12-20T21:48:27.351Z,1.68
2017-12-20T21:50:56.491Z,1.81
2017-12-20T21:53:25.528Z,1.83
2017-12-20T21:55:59.023Z,1.80
2017-12-20T21:58:31.353Z,1.82
2017-12-20T22:03:43.350Z,1.85
2017-12-20T22:06:14.335Z,1.83
2017-12-20T22:08:43.403Z,1.87
2017-12-20T22:11:12.450Z,1.84
2017-12-20T22:13:41.499Z,1.72
2017-12-20T22:16:10.551Z,1.54
2017-12-20T22:18:44.270Z,1.53
2017-12-20T22:21:13.310Z,1.54
2017-12-20T22:23:42.351Z,1.57
2017-12-20T22:26:16.048Z,1.49
2017-12-20T22:28:47.052Z,1.59
2017-12-20T22:31:16.121Z,1.69
2017-12-20T22:33:45.185Z,1.63
2017-12-20T22:36:14.264Z,1.71
2017-12-20T22:41:24.580Z,1.69
2017-12-20T22:43:53.636Z,1.80
2017-12-20T22:46:22.649Z,1.89
2017-12-20T22:48:59.098Z,1.71
2017-12-20T22:51:28.130Z,1.75
2017-12-20T22:54:01.076Z,1.78
2017-12-20T23:01:42.576Z,1.66
2017-12-20T23:04:11.586Z,1.73
2017-12-20T23:06:42.561Z,1.62
2017-12-20T23:09:11.622Z,1.66
2017-12-20T23:11:48.191Z,1.63
2017-12-20T23:14:17.233Z,1.66
2017-12-20T23:16:46.266Z,1.59
2017-12-20T23:19:15.311Z,1.50
2017-12-20T23:21:45.301Z,1.66
2017-12-20T23:24:14.341Z,1.60
2017-12-20T23:26:49.135Z,1.61
2017-12-20T23:29:20.398Z,1.54
2017-12-20T23:31:50.398Z,1.39
2017-12-20T23:34:19.434Z,1.51
2017-12-20T23:37:06.298Z,1.45
2017-12-20T23:39:35.343Z,1.31
2017-12-20T23:42:10.221Z,1.31
2017-12-20T23:44:39.268Z,1.33
2017-12-20T23:47:09.292Z,1.45
2017-12-20T23:49:38.317Z,1.42
2017-12-20T23:52:10.526Z,1.41
2017-12-20T23:54:39.575Z,1.36
2017-12-20T23:59:45.856Z,1.39
